Time;durP1;ratioP1;P1;durP2;ratioP2;P2;SDS_P1;SDS_P2;PMS_P1;PMS_P2;Temp;Humidity;BMP_temperature;BMP_pressure;BME280_temperature;BME280_humidity;BME280_pressure;Samples;Min_cycle;Max_cycle;Signal;HPM_P1;HPM_P2
2023/01/31 00:01:05;;;;;;;15.68;14.10;;;;;;;0.43;63.68;94442.19;5135636;28;20291;-69
2023/01/31 00:03:32;;;;;;;15.73;14.23;;;;;;;0.46;62.69;94448.94;5118229;28;20198;-69
2023/01/31 00:05:59;;;;;;;15.40;13.82;;;;;;;0.47;62.72;94451.34;5117772;28;20596;-69
2023/01/31 00:08:25;;;;;;;15.80;14.27;;;;;;;0.50;62.86;94446.41;5138747;27;20179;-69
2023/01/31 00:10:52;;;;;;;15.77;14.18;;;;;;;0.46;62.69;94443.50;5139683;27;20182;-69
2023/01/31 00:13:20;;;;;;;15.93;14.38;;;;;;;0.42;62.89;94440.59;5121857;27;20251;-69
2023/01/31 00:15:47;;;;;;;17.42;15.70;;;;;;;0.36;63.27;94441.00;5139804;27;20213;-69
2023/01/31 00:18:14;;;;;;;16.95;15.25;;;;;;;0.33;63.83;94445.16;5121690;27;20198;-70
2023/01/31 00:20:40;;;;;;;16.48;14.80;;;;;;;0.33;63.71;94442.44;5121668;27;20236;-69
2023/01/31 00:23:07;;;;;;;16.33;14.63;;;;;;;0.39;63.16;94449.34;5121404;27;20194;-69
2023/01/31 00:25:34;;;;;;;16.10;14.38;;;;;;;0.45;62.90;94445.41;5121695;27;20190;-68
2023/01/31 00:28:01;;;;;;;17.08;15.27;;;;;;;0.47;62.66;94439.69;5121296;27;20199;-69
2023/01/31 00:30:29;;;;;;;15.82;14.30;;;;;;;0.48;62.38;94438.59;5139257;27;20191;-69
2023/01/31 00:32:56;;;;;;;16.63;14.93;;;;;;;0.48;62.35;94446.72;5139679;27;20191;-69
2023/01/31 00:35:23;;;;;;;16.75;15.05;;;;;;;0.50;62.44;94441.78;5139285;27;20188;-69
2023/01/31 00:37:49;;;;;;;16.90;15.20;;;;;;;0.50;62.95;94435.56;5121376;27;20212;-69
2023/01/31 00:40:17;;;;;;;17.92;16.02;;;;;;;0.50;62.87;94438.28;5139313;27;20248;-69
2023/01/31 00:42:43;;;;;;;18.10;16.20;;;;;;;0.52;63.32;94446.94;5120757;27;20203;-69
2023/01/31 00:45:11;;;;;;;18.98;16.98;;;;;;;0.50;63.00;94449.94;5138902;27;20210;-69
2023/01/31 00:47:39;;;;;;;19.55;17.30;;;;;;;0.48;62.80;94446.72;5138969;27;20203;-69
2023/01/31 00:50:06;;;;;;;17.75;15.68;;;;;;;0.43;63.14;94444.09;5120935;27;20183;-69
2023/01/31 00:52:33;;;;;;;17.88;16.00;;;;;;;0.40;63.36;94448.25;5120640;27;20191;-69
2023/01/31 00:54:59;;;;;;;17.03;15.30;;;;;;;0.44;63.21;94438.41;5139001;27;20190;-69
2023/01/31 00:57:26;;;;;;;16.52;14.82;;;;;;;0.42;62.88;94435.16;5121019;27;20267;-69
2023/01/31 00:59:53;;;;;;;15.85;14.30;;;;;;;0.45;62.82;94442.72;5117380;28;20236;-69
2023/01/31 01:02:19;;;;;;;15.57;14.07;;;;;;;0.48;62.64;94452.16;5100525;28;20199;-69
2023/01/31 01:04:47;;;;;;;15.63;14.02;;;;;;;0.50;62.81;94455.34;5101110;28;20569;-69
2023/01/31 01:07:14;;;;;;;15.00;13.50;;;;;;;0.51;62.88;94462.41;5118163;28;20218;-69
2023/01/31 01:09:41;;;;;;;15.57;14.00;;;;;;;0.50;62.58;94446.41;5118325;28;20191;-69
2023/01/31 01:12:08;;;;;;;14.57;13.18;;;;;;;0.55;62.53;94459.88;5100084;28;20200;-69
2023/01/31 01:14:34;;;;;;;15.00;13.55;;;;;;;0.62;62.09;94460.28;5100319;28;20195;-69
2023/01/31 01:17:01;;;;;;;15.73;14.23;;;;;;;0.65;62.17;94455.03;5100144;28;20199;-69
2023/01/31 01:19:28;;;;;;;15.48;14.07;;;;;;;0.65;61.96;94455.03;5116600;28;20179;-69
2023/01/31 01:21:57;;;;;;;16.73;14.80;;;;;;;0.68;61.53;94448.97;5100174;28;20252;-69
2023/01/31 01:24:24;;;;;;;14.00;12.60;;;;;;;0.71;60.93;94442.94;5099891;28;20279;-69
2023/01/31 01:26:50;;;;;;;12.13;10.90;;;;;;;0.81;58.76;94438.41;5099589;28;20239;-69
2023/01/31 01:29:17;;;;;;;12.95;11.75;;;;;;;0.89;58.91;94441.19;5099970;28;20575;-69
2023/01/31 01:31:44;;;;;;;12.07;10.88;;;;;;;0.96;58.11;94429.91;5100049;28;20256;-69
2023/01/31 01:34:13;;;;;;;11.35;10.25;;;;;;;1.05;57.12;94427.25;5117185;28;20582;-69
2023/01/31 01:36:40;;;;;;;10.52;9.45;;;;;;;1.15;55.83;94429.72;5099719;28;20207;-69
2023/01/31 01:39:10;;;;;;;8.00;7.20;;;;;;;1.24;54.34;94437.94;5117319;28;20196;-69
2023/01/31 01:41:38;;;;;;;6.47;5.88;;;;;;;1.35;52.79;94437.38;5099847;28;20199;-69
2023/01/31 01:44:48;;;;;;;6.25;5.65;;;;;;;1.52;51.65;94433.13;5117102;28;20192;-69
2023/01/31 01:47:18;;;;;;;6.47;5.88;;;;;;;1.59;49.95;94439.72;5099328;28;20276;-68
2023/01/31 01:49:47;;;;;;;6.60;6.00;;;;;;;1.64;50.64;94441.53;5099128;28;20196;-69
2023/01/31 01:52:15;;;;;;;6.60;6.00;;;;;;;1.66;51.06;94439.28;5117370;28;20184;-69
2023/01/31 01:54:46;;;;;;;6.97;6.28;;;;;;;1.69;50.78;94450.34;5117203;28;20192;-69
2023/01/31 01:57:14;;;;;;;7.15;6.45;;;;;;;1.72;50.74;94435.34;5117383;28;20199;-69
2023/01/31 01:59:44;;;;;;;6.38;5.78;;;;;;;1.73;50.90;94438.84;5117112;28;20558;-69
2023/01/31 02:02:12;;;;;;;6.93;6.30;;;;;;;1.73;50.73;94436.13;5117052;28;20180;-69
2023/01/31 02:04:41;;;;;;;6.78;6.18;;;;;;;1.74;50.71;94443.16;5099162;28;20249;-69
2023/01/31 02:07:09;;;;;;;6.50;5.93;;;;;;;1.79;50.23;94440.34;5099583;28;20219;-69
2023/01/31 02:09:41;;;;;;;6.90;6.30;;;;;;;1.82;50.40;94450.59;5099124;28;20188;-69
2023/01/31 02:12:10;;;;;;;6.40;5.80;;;;;;;1.82;50.38;94456.03;5116625;28;20237;-69
2023/01/31 02:14:37;;;;;;;6.85;6.25;;;;;;;1.79;50.09;94460.16;5098662;28;20207;-69
2023/01/31 02:17:04;;;;;;;6.55;6.00;;;;;;;1.76;50.07;94444.47;5098993;28;20199;-69
2023/01/31 02:19:38;;;;;;;6.90;6.20;;;;;;;1.77;50.47;94448.78;5098935;28;20214;-69
2023/01/31 02:22:14;;;;;;;7.40;6.78;;;;;;;1.72;50.09;94448.94;5099055;28;20191;-69
2023/01/31 02:25:21;;;;;;;7.20;6.50;;;;;;;1.71;50.30;94451.94;5116609;28;20206;-69
2023/01/31 02:28:12;;;;;;;6.90;6.35;;;;;;;1.69;50.37;94435.97;5116519;28;20278;-69
2023/01/31 02:30:53;;;;;;;6.90;6.30;;;;;;;1.71;50.65;94444.63;5116527;28;20184;-69
2023/01/31 02:33:24;;;;;;;6.25;5.65;;;;;;;1.69;49.56;94446.84;5099166;28;20192;-69
2023/01/31 02:35:58;;;;;;;6.65;5.95;;;;;;;1.69;49.75;94453.06;5099084;28;20225;-69
2023/01/31 02:38:35;;;;;;;7.32;6.63;;;;;;;1.68;49.80;94456.91;5098903;28;20192;-69
2023/01/31 02:41:10;;;;;;;6.75;6.10;;;;;;;1.69;49.89;94453.06;5099084;28;20195;-68
2023/01/31 02:46:28;;;;;;;7.68;6.97;;;;;;;1.71;50.31;94443.78;5071304;28;20754;-69
2023/01/31 02:49:02;;;;;;;7.68;6.97;;;;;;;1.71;51.20;94444.63;5098799;28;20257;-68
2023/01/31 02:51:31;;;;;;;7.63;7.03;;;;;;;1.70;51.69;94456.59;5098696;28;20196;-69
2023/01/31 02:54:04;;;;;;;7.80;7.20;;;;;;;1.73;51.74;94471.47;5116124;28;20180;-68
2023/01/31 02:56:32;;;;;;;8.25;7.45;;;;;;;1.74;51.39;94473.88;5115961;28;20209;-68
2023/01/31 02:59:02;;;;;;;7.55;6.90;;;;;;;1.75;50.59;94491.00;5116060;28;20176;-69
2023/01/31 03:01:32;;;;;;;7.53;6.72;;;;;;;1.78;51.59;94484.94;5132365;27;20238;-69
2023/01/31 03:04:03;;;;;;;8.27;7.47;;;;;;;1.76;51.46;94489.91;5136561;27;20232;-69
2023/01/31 03:07:00;;;;;;;7.72;7.03;;;;;;;1.73;52.25;94502.19;5118193;27;20218;-69
2023/01/31 03:09:44;;;;;;;8.02;7.32;;;;;;;1.71;51.73;94507.16;5106142;27;20206;-68
2023/01/31 03:12:33;;;;;;;7.97;7.28;;;;;;;1.69;52.43;94504.72;5134502;27;20207;-69
2023/01/31 03:15:18;;;;;;;8.20;7.50;;;;;;;1.68;52.52;94514.00;5118711;27;20224;-69
2023/01/31 03:17:53;;;;;;;8.43;7.63;;;;;;;1.68;52.90;94521.34;5118164;27;20195;-69
2023/01/31 03:20:25;;;;;;;8.20;7.47;;;;;;;1.61;53.27;94513.63;5136052;27;20295;-69
2023/01/31 03:22:54;;;;;;;7.90;7.20;;;;;;;1.57;53.50;94509.13;5136201;27;20191;-69
2023/01/31 03:25:23;;;;;;;8.27;7.47;;;;;;;1.58;53.37;94516.16;5118526;27;20215;-68
2023/01/31 03:27:54;;;;;;;8.23;7.43;;;;;;;1.61;53.98;94521.00;5118002;28;20271;-69
2023/01/31 03:30:25;;;;;;;8.02;7.22;;;;;;;1.65;54.67;94530.13;5136277;28;20260;-69
2023/01/31 03:32:56;;;;;;;7.57;6.97;;;;;;;1.64;54.61;94523.09;5136122;28;20219;-69
2023/01/31 03:35:26;;;;;;;8.23;7.53;;;;;;;1.63;55.19;94533.16;5135841;28;20198;-70
2023/01/31 03:37:57;;;;;;;8.63;7.80;;;;;;;1.61;54.95;94538.09;5118236;28;20195;-69
2023/01/31 03:40:26;;;;;;;8.88;8.07;;;;;;;1.59;56.05;94548.47;5136221;28;20191;-69
2023/01/31 03:42:56;;;;;;;9.18;8.27;;;;;;;1.54;56.18;94545.09;5137747;27;20618;-69
2023/01/31 03:45:28;;;;;;;9.57;8.65;;;;;;;1.56;55.89;94559.97;5140187;27;20599;-69
2023/01/31 03:47:56;;;;;;;9.63;8.73;;;;;;;1.57;56.40;94566.22;5140341;27;20207;-69
2023/01/31 03:50:27;;;;;;;9.48;8.68;;;;;;;1.55;57.30;94552.91;5122492;27;20256;-69
2023/01/31 03:52:58;;;;;;;10.00;9.10;;;;;;;1.52;57.73;94553.53;5140052;27;20596;-69
2023/01/31 03:55:29;;;;;;;9.52;8.63;;;;;;;1.50;57.76;94561.19;5121928;27;20522;-69
2023/01/31 03:57:57;;;;;;;9.75;8.85;;;;;;;1.48;58.05;94562.63;5122053;27;20199;-69
2023/01/31 04:00:26;;;;;;;9.95;8.95;;;;;;;1.49;58.79;94559.59;5132317;27;20247;-68
2023/01/31 04:02:55;;;;;;;9.60;8.70;;;;;;;1.48;59.18;94570.75;5119272;28;20611;-67
2023/01/31 04:05:31;;;;;;;9.88;8.98;;;;;;;1.40;59.04;94564.94;5119398;28;20184;-67
2023/01/31 04:07:58;;;;;;;9.70;8.80;;;;;;;1.39;60.01;94552.47;5101475;28;20588;-67
2023/01/31 04:10:25;;;;;;;10.57;9.50;;;;;;;1.43;59.61;94558.91;5101452;28;20211;-67
2023/01/31 04:13:12;;;;;;;10.40;9.40;;;;;;;1.43;59.75;94579.84;5116676;28;20366;-67
2023/01/31 04:15:45;;;;;;;10.35;9.45;;;;;;;1.35;60.22;94578.66;5101753;28;20278;-67
2023/01/31 04:18:31;;;;;;;10.18;9.18;;;;;;;1.31;60.49;94571.44;5116426;28;20286;-67
2023/01/31 04:21:06;;;;;;;10.98;9.85;;;;;;;1.30;61.18;94584.19;5118774;28;20559;-67
2023/01/31 04:23:32;;;;;;;10.45;9.45;;;;;;;1.28;61.33;94578.28;5100784;28;20187;-67
2023/01/31 04:25:59;;;;;;;11.30;10.30;;;;;;;1.26;61.75;94593.28;5119072;28;20187;-67
2023/01/31 04:28:26;;;;;;;11.43;10.43;;;;;;;1.26;61.93;94590.56;5100987;28;20222;-67
2023/01/31 04:30:54;;;;;;;11.82;10.73;;;;;;;1.20;62.19;94600.75;5101180;28;20212;-67
2023/01/31 04:33:21;;;;;;;11.02;9.98;;;;;;;1.18;61.69;94611.09;5100835;28;20188;-67
2023/01/31 04:35:48;;;;;;;11.65;10.55;;;;;;;1.23;62.28;94608.25;5100985;28;20200;-67
2023/01/31 04:38:16;;;;;;;11.77;10.68;;;;;;;1.25;62.53;94605.25;5101309;28;20245;-68
2023/01/31 04:40:43;;;;;;;12.10;11.00;;;;;;;1.24;62.92;94601.75;5100481;28;20230;-67
2023/01/31 04:43:11;;;;;;;11.20;10.20;;;;;;;1.29;62.71;94608.97;5118476;28;20595;-67
2023/01/31 04:45:37;;;;;;;11.70;10.70;;;;;;;1.29;62.65;94607.06;5100733;28;20559;-67
2023/01/31 04:48:05;;;;;;;11.68;10.68;;;;;;;1.21;62.96;94605.06;5101176;28;20211;-67
2023/01/31 04:50:32;;;;;;;11.25;10.25;;;;;;;1.25;62.66;94610.69;5100882;28;20205;-67
2023/01/31 04:52:59;;;;;;;10.93;10.02;;;;;;;1.27;62.29;94612.00;5118332;28;20191;-68
2023/01/31 04:55:27;;;;;;;11.57;10.48;;;;;;;1.30;62.98;94610.56;5100607;28;20192;-67
2023/01/31 04:57:54;;;;;;;11.57;10.57;;;;;;;1.31;62.39;94614.91;5100295;28;20207;-67
2023/01/31 05:00:21;;;;;;;11.50;10.50;;;;;;;1.30;62.75;94603.22;5107247;27;20230;-67
2023/01/31 05:02:48;;;;;;;11.75;10.75;;;;;;;1.27;62.67;94597.59;5138851;27;20211;-67
2023/01/31 05:05:15;;;;;;;10.43;9.43;;;;;;;1.25;62.97;94591.69;5138564;27;20191;-67
2023/01/31 05:07:44;;;;;;;10.93;10.02;;;;;;;1.24;63.26;94603.66;5120918;27;20210;-67
2023/01/31 05:10:11;;;;;;;10.98;10.07;;;;;;;1.24;62.98;94601.75;5138834;27;20184;-67
2023/01/31 05:12:39;;;;;;;10.40;9.50;;;;;;;1.23;62.92;94589.25;5120876;27;20195;-67
2023/01/31 05:15:07;;;;;;;10.63;9.73;;;;;;;1.33;63.47;94599.09;5120480;27;20433;-66
2023/01/31 05:17:34;;;;;;;10.70;9.80;;;;;;;1.29;62.69;94606.25;5137692;27;20422;-68
2023/01/31 05:20:01;;;;;;;9.18;8.30;;;;;;;1.27;63.51;94611.16;5121022;27;20286;-67
2023/01/31 05:22:28;;;;;;;8.57;7.88;;;;;;;1.31;63.30;94614.91;5120444;27;20206;-67
2023/01/31 05:24:55;;;;;;;9.32;8.52;;;;;;;1.34;62.79;94619.72;5120569;27;20190;-67
2023/01/31 05:27:22;;;;;;;9.73;8.93;;;;;;;1.32;62.89;94617.31;5119978;27;20215;-66
2023/01/31 05:29:50;;;;;;;9.10;8.27;;;;;;;1.31;63.16;94620.34;5120752;27;20187;-66
2023/01/31 05:32:18;;;;;;;9.90;9.00;;;;;;;1.29;63.17;94608.97;5120406;27;20194;-67
2023/01/31 05:34:45;;;;;;;9.30;8.40;;;;;;;1.30;62.90;94616.00;5138379;27;20226;-67
2023/01/31 05:37:12;;;;;;;9.70;8.80;;;;;;;1.32;63.00;94613.78;5138131;27;20198;-67
2023/01/31 05:39:38;;;;;;;9.35;8.45;;;;;;;1.37;62.98;94625.34;5120031;27;20194;-67
2023/01/31 05:42:05;;;;;;;8.88;8.07;;;;;;;1.37;62.75;94617.19;5120380;27;20199;-67
2023/01/31 05:44:32;;;;;;;9.48;8.57;;;;;;;1.39;62.76;94609.56;5120150;27;20213;-67
2023/01/31 05:47:00;;;;;;;8.82;8.02;;;;;;;1.40;62.24;94624.72;5120077;27;20194;-67
2023/01/31 05:49:30;;;;;;;8.70;8.00;;;;;;;1.41;63.16;94630.97;5119807;27;20207;-67
2023/01/31 05:51:57;;;;;;;7.97;7.28;;;;;;;1.37;62.84;94629.97;5120610;27;20221;-66
2023/01/31 05:54:24;;;;;;;8.57;7.78;;;;;;;1.39;62.97;94641.34;5120092;27;20194;-67
2023/01/31 05:56:51;;;;;;;8.85;8.05;;;;;;;1.51;65.06;94633.47;5119884;27;20195;-67
2023/01/31 05:59:17;;;;;;;8.45;7.75;;;;;;;1.77;65.71;94644.56;5119615;27;20213;-69
2023/01/31 06:01:44;;;;;;;8.77;8.02;;;;;;;2.06;65.61;94638.69;5119316;27;20226;-67
2023/01/31 06:04:13;;;;;;;8.77;7.97;;;;;;;2.24;63.72;94642.34;5119548;27;20561;-67
2023/01/31 06:06:39;;;;;;;7.93;7.22;;;;;;;2.19;61.92;94628.88;5119033;27;20195;-67
2023/01/31 06:09:06;;;;;;;9.20;8.40;;;;;;;2.00;61.90;94637.22;5119584;27;20215;-66
2023/01/31 06:11:33;;;;;;;9.50;8.70;;;;;;;1.89;62.41;94639.41;5119104;27;20261;-67
2023/01/31 06:14:00;;;;;;;10.40;9.40;;;;;;;1.83;62.03;94637.09;5119286;27;20191;-67
2023/01/31 06:16:26;;;;;;;10.15;9.25;;;;;;;1.77;62.59;94635.59;5119565;27;20191;-66
2023/01/31 06:18:54;;;;;;;9.25;8.43;;;;;;;1.71;62.76;94623.22;5119262;27;20206;-67
2023/01/31 06:21:22;;;;;;;10.38;9.45;;;;;;;1.64;63.47;94624.47;5119236;27;20194;-67
2023/01/31 06:23:49;;;;;;;10.45;9.48;;;;;;;1.58;63.40;94622.97;5118831;27;20626;-67
2023/01/31 06:26:17;;;;;;;10.35;9.45;;;;;;;1.55;63.75;94626.31;5119733;27;20187;-67
2023/01/31 06:28:44;;;;;;;9.63;8.70;;;;;;;1.59;63.73;94632.72;5118862;27;20269;-67
2023/01/31 06:31:12;;;;;;;9.73;8.68;;;;;;;1.59;63.98;94642.81;5118768;27;20191;-67
2023/01/31 06:33:38;;;;;;;9.68;8.88;;;;;;;1.61;63.92;94651.47;5119060;27;20205;-67
2023/01/31 06:36:06;;;;;;;10.63;9.73;;;;;;;1.60;63.68;94649.88;5119332;27;20206;-67
2023/01/31 06:38:34;;;;;;;9.18;8.23;;;;;;;1.65;63.42;94641.59;5119382;27;20202;-67
2023/01/31 06:41:01;;;;;;;9.98;9.18;;;;;;;1.65;63.78;94642.38;5118613;27;20626;-66
2023/01/31 06:43:27;;;;;;;10.43;9.52;;;;;;;1.68;63.68;94639.06;5137020;27;20607;-66
2023/01/31 06:45:54;;;;;;;10.90;9.90;;;;;;;1.66;63.80;94646.72;5118896;27;20191;-67
2023/01/31 06:48:21;;;;;;;11.32;10.25;;;;;;;1.65;64.45;94639.66;5136412;27;20226;-67
2023/01/31 06:50:48;;;;;;;11.93;10.80;;;;;;;1.71;63.79;94643.09;5119140;27;20240;-66
2023/01/31 06:53:14;;;;;;;10.50;9.60;;;;;;;1.71;63.29;94640.38;5118331;27;20247;-66
2023/01/31 06:55:42;;;;;;;10.48;9.48;;;;;;;1.73;62.83;94646.28;5118659;27;20191;-67
2023/01/31 06:58:09;;;;;;;9.80;9.00;;;;;;;1.72;63.21;94641.16;5136337;27;20482;-66
2023/01/31 07:00:36;;;;;;;9.02;8.23;;;;;;;1.74;63.14;94639.72;5136459;27;20244;-67
2023/01/31 07:03:03;;;;;;;8.57;7.78;;;;;;;1.77;63.26;94647.28;5118667;27;20198;-66
2023/01/31 07:05:30;;;;;;;9.00;8.30;;;;;;;1.79;63.09;94638.84;5136516;27;20198;-67
2023/01/31 07:07:56;;;;;;;9.50;8.70;;;;;;;1.76;63.10;94642.97;5118982;27;20279;-67
2023/01/31 07:10:23;;;;;;;8.98;8.18;;;;;;;1.77;62.80;94650.00;5136545;27;20202;-67
2023/01/31 07:12:51;;;;;;;9.30;8.50;;;;;;;1.80;62.67;94654.03;5118681;27;20190;-67
2023/01/31 07:15:18;;;;;;;31.40;10.27;;;;;;;2.03;65.50;94655.63;5136419;27;20183;-67
2023/01/31 07:17:45;;;;;;;9.32;8.43;;;;;;;2.05;63.50;94653.41;5118152;27;20224;-67
2023/01/31 07:20:14;;;;;;;9.27;8.38;;;;;;;2.04;63.03;94656.47;5118404;28;20195;-66
2023/01/31 07:22:41;;;;;;;9.73;8.82;;;;;;;1.97;63.67;94653.38;5136290;27;20187;-66
2023/01/31 07:25:09;;;;;;;9.82;8.93;;;;;;;1.96;63.97;94668.06;5118142;28;20206;-66
2023/01/31 07:27:36;;;;;;;9.80;8.90;;;;;;;1.98;64.30;94665.84;5118038;27;20206;-67
2023/01/31 07:30:05;;;;;;;9.65;8.85;;;;;;;1.97;64.03;94665.06;5118534;27;20202;-67
2023/01/31 07:32:31;;;;;;;9.93;8.93;;;;;;;1.99;64.04;94670.97;5136189;27;20248;-67
2023/01/31 07:34:58;;;;;;;9.60;8.80;;;;;;;1.99;63.89;94664.72;5136241;28;20187;-67
2023/01/31 07:37:25;;;;;;;10.00;9.10;;;;;;;2.03;64.16;94674.69;5117944;28;20199;-67
2023/01/31 07:39:51;;;;;;;9.02;8.30;;;;;;;2.00;64.01;94666.31;5136171;28;20175;-67
2023/01/31 07:42:18;;;;;;;9.07;8.23;;;;;;;2.02;64.03;94677.72;5135962;28;20532;-67
2023/01/31 07:44:45;;;;;;;9.73;8.90;;;;;;;2.04;64.67;94673.59;5118132;28;20201;-67
2023/01/31 07:47:13;;;;;;;9.32;8.50;;;;;;;2.09;64.26;94684.34;5117611;28;20210;-67
2023/01/31 07:49:40;;;;;;;9.00;8.20;;;;;;;2.09;64.30;94673.44;5136075;28;20207;-67
2023/01/31 07:52:07;;;;;;;8.68;7.88;;;;;;;2.08;64.00;94679.22;5135897;28;20191;-67
2023/01/31 07:54:34;;;;;;;8.65;7.93;;;;;;;2.06;64.85;94682.22;5118048;28;20267;-67
2023/01/31 07:57:00;;;;;;;10.25;9.35;;;;;;;2.10;64.21;94680.50;5136386;28;20195;-67
2023/01/31 07:59:27;;;;;;;9.50;8.70;;;;;;;2.13;64.94;94679.06;5135941;28;20199;-67
2023/01/31 08:04:39;;;;;;;11.15;10.13;;;;;;;2.15;65.07;94691.28;5118196;28;20282;-67
2023/01/31 08:07:06;;;;;;;10.45;9.38;;;;;;;2.19;65.10;94688.72;5136021;28;20187;-67
2023/01/31 08:09:33;;;;;;;9.50;8.65;;;;;;;2.23;64.64;94688.91;5135439;28;20203;-67
2023/01/31 08:11:59;;;;;;;9.70;8.90;;;;;;;2.29;65.32;94674.88;5135867;28;20568;-67
2023/01/31 08:14:27;;;;;;;9.27;8.48;;;;;;;2.33;64.65;94684.03;5135848;28;20188;-67
2023/01/31 08:16:54;;;;;;;8.95;8.20;;;;;;;2.39;64.56;94676.53;5117760;28;20206;-67
2023/01/31 08:19:21;;;;;;;9.95;9.15;;;;;;;2.47;64.92;94681.25;5117651;28;20203;-68
2023/01/31 08:21:49;;;;;;;9.30;8.50;;;;;;;2.50;64.15;94683.31;5135431;28;20236;-67
2023/01/31 08:24:16;;;;;;;9.35;8.50;;;;;;;2.54;64.06;94675.34;5117418;28;20195;-67
2023/01/31 08:26:43;;;;;;;9.50;8.63;;;;;;;2.59;63.60;94678.75;5135971;28;20198;-67
2023/01/31 08:29:10;;;;;;;10.73;9.63;;;;;;;2.65;63.71;94666.63;5119849;27;20219;-67
2023/01/31 08:31:36;;;;;;;9.65;8.85;;;;;;;2.73;62.87;94669.69;5121411;27;20191;-67
2023/01/31 08:34:03;;;;;;;9.70;8.80;;;;;;;2.79;63.05;94674.66;5139595;27;20210;-67
2023/01/31 08:36:31;;;;;;;10.20;9.30;;;;;;;2.82;62.87;94673.25;5139532;27;20183;-67
2023/01/31 08:38:59;;;;;;;9.43;8.52;;;;;;;2.80;62.97;94668.13;5121603;27;20214;-67
2023/01/31 08:41:27;;;;;;;10.35;9.35;;;;;;;2.82;62.53;94671.31;5121381;27;20256;-67
2023/01/31 08:43:56;;;;;;;9.20;8.35;;;;;;;2.83;62.75;94661.22;5139450;27;20198;-67
2023/01/31 08:46:23;;;;;;;10.07;9.18;;;;;;;2.89;63.09;94659.97;5139383;27;20187;-67
2023/01/31 08:48:50;;;;;;;8.60;7.90;;;;;;;2.98;63.27;94670.91;5121329;27;20218;-67
2023/01/31 08:51:17;;;;;;;8.48;7.75;;;;;;;3.10;62.32;94660.22;5120661;27;20203;-67
2023/01/31 08:53:44;;;;;;;8.82;8.13;;;;;;;3.24;62.33;94676.47;5139105;27;20498;-67
2023/01/31 08:56:13;;;;;;;7.47;6.75;;;;;;;3.21;61.43;94667.00;5139003;27;20203;-67
2023/01/31 08:58:41;;;;;;;8.38;7.68;;;;;;;3.24;61.66;94676.47;5139218;27;20268;-67
2023/01/31 09:01:09;;;;;;;8.23;7.47;;;;;;;3.38;61.57;94671.69;5120365;27;20262;-68
2023/01/31 09:03:36;;;;;;;7.57;6.93;;;;;;;3.67;62.46;94670.28;5121200;27;20199;-67
2023/01/31 09:06:04;;;;;;;7.57;6.88;;;;;;;3.92;61.34;94663.25;5138957;27;20186;-67
2023/01/31 09:08:31;;;;;;;6.25;5.65;;;;;;;4.09;63.22;94677.72;5138457;27;20245;-67
2023/01/31 09:10:59;;;;;;;6.95;6.28;;;;;;;4.27;60.09;94674.97;5120483;27;20251;-67
2023/01/31 09:13:28;;;;;;;6.60;6.00;;;;;;;4.36;59.75;94662.13;5120583;27;20583;-67
2023/01/31 09:15:59;;;;;;;7.18;6.57;;;;;;;4.48;58.62;94669.66;5138567;27;20183;-67
2023/01/31 09:18:26;;;;;;;6.80;6.20;;;;;;;4.59;58.51;94673.66;5138514;27;20190;-67
2023/01/31 09:20:52;;;;;;;7.13;6.47;;;;;;;4.68;58.02;94670.88;5120020;27;20198;-67
2023/01/31 09:23:19;;;;;;;6.32;5.82;;;;;;;4.61;57.36;94670.59;5138104;27;20195;-67
2023/01/31 09:25:52;;;;;;;6.30;5.80;;;;;;;4.40;57.16;94665.03;5138463;27;20191;-67
2023/01/31 09:28:19;;;;;;;6.68;6.10;;;;;;;4.29;58.07;94659.88;5120490;27;20223;-66
2023/01/31 09:30:47;;;;;;;6.55;6.05;;;;;;;4.41;59.20;94663.88;5138218;27;20187;-67
2023/01/31 09:33:14;;;;;;;6.53;5.93;;;;;;;4.48;58.76;94653.28;5120013;27;20199;-67
2023/01/31 09:35:40;;;;;;;6.82;6.22;;;;;;;4.47;58.46;94657.94;5138185;27;20256;-67
2023/01/31 09:38:07;;;;;;;5.60;5.10;;;;;;;4.42;58.03;94655.34;5120188;27;20214;-67
2023/01/31 09:40:36;;;;;;;6.15;5.65;;;;;;;4.38;58.03;94648.94;5137097;27;20198;-67
2023/01/31 09:43:03;;;;;;;6.03;5.53;;;;;;;4.43;58.37;94642.50;5138079;27;20186;-67
2023/01/31 09:45:32;;;;;;;5.45;4.95;;;;;;;4.64;58.29;94645.34;5137877;27;20255;-67
2023/01/31 09:48:02;;;;;;;5.25;4.85;;;;;;;4.90;58.08;94642.53;5120514;27;20227;-67
2023/01/31 09:50:33;;;;;;;4.97;4.57;;;;;;;5.12;56.54;94645.03;5119889;27;20320;-67
2023/01/31 09:53:00;;;;;;;5.18;4.78;;;;;;;5.20;56.02;94629.72;5137803;27;20200;-67
2023/01/31 09:55:32;;;;;;;5.30;4.80;;;;;;;5.45;56.51;94628.78;5119928;27;20202;-66
2023/01/31 09:58:03;;;;;;;4.60;4.30;;;;;;;5.58;56.46;94632.38;5138944;27;20195;-66
2023/01/31 10:00:32;;;;;;;5.30;4.90;;;;;;;5.75;55.72;94632.28;5137785;27;20248;-67
2023/01/31 10:03:09;;;;;;;5.30;4.90;;;;;;;5.74;55.87;94632.63;5138183;27;20179;-67
2023/01/31 10:05:40;;;;;;;5.72;5.28;;;;;;;5.75;54.68;94626.81;5119899;27;20263;-67
2023/01/31 10:08:15;;;;;;;5.72;5.22;;;;;;;5.79;55.18;94625.00;5119802;27;20187;-67
2023/01/31 10:11:01;;;;;;;5.38;4.97;;;;;;;5.76;54.75;94619.41;5137598;27;20218;-67
2023/01/31 10:13:34;;;;;;;4.95;4.47;;;;;;;5.88;54.57;94613.19;5138016;27;20190;-67
2023/01/31 10:16:05;;;;;;;4.72;4.32;;;;;;;6.01;52.85;94614.88;5137979;27;20259;-67
2023/01/31 10:18:35;;;;;;;4.40;4.00;;;;;;;6.18;53.12;94600.25;5120260;27;20222;-67
2023/01/31 10:21:06;;;;;;;4.45;4.13;;;;;;;6.41;52.87;94609.69;5138105;27;20248;-67
2023/01/31 10:23:35;;;;;;;4.55;4.15;;;;;;;6.60;51.59;94594.66;5137960;27;20232;-67
2023/01/31 10:26:05;;;;;;;4.22;3.92;;;;;;;6.78;51.41;94595.28;5138268;27;20186;-67
2023/01/31 10:28:38;;;;;;;4.68;4.30;;;;;;;6.91;49.98;94589.47;5137918;27;20187;-67
2023/01/31 10:31:08;;;;;;;5.00;4.60;;;;;;;7.04;49.13;94579.31;5119558;27;20251;-67
2023/01/31 10:33:41;;;;;;;4.85;4.32;;;;;;;7.19;50.99;94594.31;5118733;27;20206;-67
2023/01/31 10:36:14;;;;;;;5.78;5.28;;;;;;;7.35;49.74;94586.97;5137543;27;20189;-67
2023/01/31 10:38:52;;;;;;;5.78;5.28;;;;;;;7.31;49.35;94577.03;5137315;27;20218;-67
2023/01/31 10:41:25;;;;;;;5.65;5.00;;;;;;;6.82;49.61;94583.28;5119432;27;20619;-67
2023/01/31 10:43:57;;;;;;;6.40;5.80;;;;;;;6.60;50.29;94583.72;5137239;27;20187;-67
2023/01/31 10:46:24;;;;;;;6.05;5.45;;;;;;;6.74;51.65;94576.75;5119352;27;20202;-68
2023/01/31 10:48:53;;;;;;;6.63;6.05;;;;;;;7.07;51.32;94584.09;5119166;27;20203;-67
2023/01/31 10:51:31;;;;;;;4.40;4.07;;;;;;;6.80;49.64;94569.13;5118841;27;20199;-67
2023/01/31 10:54:11;;;;;;;6.07;5.47;;;;;;;6.97;50.87;94579.91;5119184;27;20260;-67
2023/01/31 10:56:42;;;;;;;5.22;4.82;;;;;;;7.36;50.98;94577.59;5119334;27;20225;-67
2023/01/31 10:59:13;;;;;;;4.82;4.43;;;;;;;7.60;49.58;94586.94;5119138;27;20198;-67
2023/01/31 11:01:41;;;;;;;4.85;4.40;;;;;;;7.43;49.21;94599.75;5118887;27;20250;-67
2023/01/31 11:04:22;;;;;;;4.20;3.90;;;;;;;6.92;49.49;94587.53;5098693;28;20207;-67
2023/01/31 11:06:49;;;;;;;3.40;3.20;;;;;;;6.53;50.03;94591.69;5099569;28;20358;-67
2023/01/31 11:09:16;;;;;;;3.70;3.40;;;;;;;6.12;51.43;94607.88;5098941;28;20215;-67
2023/01/31 11:11:55;;;;;;;3.70;3.40;;;;;;;5.90;52.28;94592.56;5099233;28;20203;-67
2023/01/31 11:14:21;;;;;;;4.00;3.70;;;;;;;5.69;52.97;94600.75;5099130;28;20208;-67
2023/01/31 11:16:49;;;;;;;3.25;3.05;;;;;;;5.48;53.46;94595.31;5098856;28;20192;-67
2023/01/31 11:19:21;;;;;;;3.38;3.17;;;;;;;5.36;53.93;94602.59;5117371;28;20187;-67
2023/01/31 11:21:50;;;;;;;4.22;3.83;;;;;;;5.23;54.88;94602.53;5116375;28;20184;-66
2023/01/31 11:24:23;;;;;;;3.97;3.67;;;;;;;5.12;54.68;94606.78;5116368;28;20176;-67
2023/01/31 11:26:53;;;;;;;3.63;3.33;;;;;;;4.91;55.33;94603.97;5098457;28;20215;-67
2023/01/31 11:29:23;;;;;;;4.20;3.80;;;;;;;4.75;56.74;94616.56;5115808;28;20211;-67
2023/01/31 11:31:50;;;;;;;3.83;3.53;;;;;;;4.74;56.64;94615.75;5098669;28;20317;-67
2023/01/31 11:34:23;;;;;;;3.78;3.47;;;;;;;4.59;56.79;94616.28;5116081;28;20253;-66
2023/01/31 11:36:49;;;;;;;3.80;3.50;;;;;;;4.46;57.41;94618.06;5115955;28;20614;-66
2023/01/31 11:39:30;;;;;;;3.60;3.30;;;;;;;4.44;57.24;94616.81;5097810;28;20195;-67
2023/01/31 11:41:57;;;;;;;4.18;3.88;;;;;;;4.34;57.19;94615.22;5098741;28;20230;-67
2023/01/31 11:44:24;;;;;;;3.80;3.50;;;;;;;4.30;57.89;94612.34;5098892;28;20199;-67
2023/01/31 11:46:53;;;;;;;3.63;3.33;;;;;;;4.26;58.11;94621.50;5098526;28;20210;-67
2023/01/31 11:49:28;;;;;;;3.50;3.28;;;;;;;4.16;58.13;94614.44;5116536;28;20261;-67
2023/01/31 11:51:55;;;;;;;3.55;3.33;;;;;;;4.12;58.34;94616.22;5097833;28;20610;-67